sensor_id;sensor_type;location;lat;lon;timestamp;noise_LAeq;noise_LA_min;noise_LA_max;noise_LA01;noise_LA95
70454;Laerm;57915;47.174;14.680;2023-04-01T00:00:56;51.03;49.91;61.35;;
70454;Laerm;57915;47.174;14.680;2023-04-01T00:01:58;50.71;49.76;54.82;;
70454;Laerm;57915;47.174;14.680;2023-04-01T00:02:59;50.67;49.81;53.26;;
70454;Laerm;57915;47.174;14.680;2023-04-01T00:04:00;50.88;49.88;60.17;;
70454;Laerm;57915;47.174;14.680;2023-04-01T00:05:03;50.60;49.92;55.83;;
70454;Laerm;57915;47.174;14.680;2023-04-01T00:06:03;50.57;49.74;54.19;;
70454;Laerm;57915;47.174;14.680;2023-04-01T00:07:05;55.21;49.85;65.52;;
70454;Laerm;57915;47.174;14.680;2023-04-01T00:08:06;55.96;49.71;68.93;;
70454;Laerm;57915;47.174;14.680;2023-04-01T00:09:08;51.60;49.87;65.82;;
70454;Laerm;57915;47.174;14.680;2023-04-01T00:10:11;50.85;49.91;55.33;;
70454;Laerm;57915;47.174;14.680;2023-04-01T00:11:12;50.62;49.84;55.08;;
70454;Laerm;57915;47.174;14.680;2023-04-01T00:12:13;50.90;49.79;61.07;;
70454;Laerm;57915;47.174;14.680;2023-04-01T00:13:14;50.77;49.89;57.73;;
70454;Laerm;57915;47.174;14.680;2023-04-01T00:14:16;50.74;49.76;57.43;;
70454;Laerm;57915;47.174;14.680;2023-04-01T00:15:16;51.36;49.84;56.06;;
70454;Laerm;57915;47.174;14.680;2023-04-01T00:16:18;51.65;49.95;56.73;;
70454;Laerm;57915;47.174;14.680;2023-04-01T00:17:18;56.06;49.95;66.41;;
70454;Laerm;57915;47.174;14.680;2023-04-01T00:18:20;59.37;49.97;71.47;;
70454;Laerm;57915;47.174;14.680;2023-04-01T00:19:21;51.30;49.97;61.36;;
70454;Laerm;57915;47.174;14.680;2023-04-01T00:20:22;55.98;50.03;66.30;;
70454;Laerm;57915;47.174;14.680;2023-04-01T00:21:23;51.31;49.92;64.11;;
70454;Laerm;57915;47.174;14.680;2023-04-01T00:22:25;59.51;50.18;70.45;;
70454;Laerm;57915;47.174;14.680;2023-04-01T00:23:26;51.31;50.05;59.09;;
70454;Laerm;57915;47.174;14.680;2023-04-01T00:24:27;57.14;50.02;68.00;;
70454;Laerm;57915;47.174;14.680;2023-04-01T00:25:29;51.05;49.93;56.47;;
70454;Laerm;57915;47.174;14.680;2023-04-01T00:26:31;50.96;49.91;59.73;;
70454;Laerm;57915;47.174;14.680;2023-04-01T00:27:31;50.79;49.92;54.42;;
70454;Laerm;57915;47.174;14.680;2023-04-01T00:28:33;51.07;49.99;58.93;;
70454;Laerm;57915;47.174;14.680;2023-04-01T00:29:34;51.06;50.21;52.60;;
70454;Laerm;57915;47.174;14.680;2023-04-01T00:30:36;50.90;49.95;58.77;;
70454;Laerm;57915;47.174;14.680;2023-04-01T00:31:37;50.91;49.99;54.98;;
70454;Laerm;57915;47.174;14.680;2023-04-01T00:32:38;51.33;50.04;61.13;;
70454;Laerm;57915;47.174;14.680;2023-04-01T00:33:39;53.82;50.24;62.30;;
70454;Laerm;57915;47.174;14.680;2023-04-01T00:34:41;50.87;49.95;52.17;;
70454;Laerm;57915;47.174;14.680;2023-04-01T00:35:41;50.68;50.00;51.72;;
70454;Laerm;57915;47.174;14.680;2023-04-01T00:36:43;50.64;49.90;51.45;;
70454;Laerm;57915;47.174;14.680;2023-04-01T00:37:43;50.56;49.86;51.34;;
70454;Laerm;57915;47.174;14.680;2023-04-01T00:38:45;50.69;50.02;53.14;;
70454;Laerm;57915;47.174;14.680;2023-04-01T00:39:47;50.97;49.95;53.66;;
70454;Laerm;57915;47.174;14.680;2023-04-01T00:40:48;51.07;49.87;54.93;;
70454;Laerm;57915;47.174;14.680;2023-04-01T00:41:51;50.56;49.87;51.29;;
70454;Laerm;57915;47.174;14.680;2023-04-01T00:42:51;50.73;49.98;51.61;;
70454;Laerm;57915;47.174;14.680;2023-04-01T00:44:11;50.65;49.96;51.44;;
70454;Laerm;57915;47.174;14.680;2023-04-01T00:45:26;50.70;49.99;51.54;;
70454;Laerm;57915;47.174;14.680;2023-04-01T00:46:27;50.71;50.02;51.61;;
70454;Laerm;57915;47.174;14.680;2023-04-01T00:47:28;50.74;50.03;51.60;;
70454;Laerm;57915;47.174;14.680;2023-04-01T00:48:30;50.65;49.94;51.57;;
70454;Laerm;57915;47.174;14.680;2023-04-01T00:49:33;57.84;50.25;68.58;;
70454;Laerm;57915;47.174;14.680;2023-04-01T00:50:35;51.08;50.19;52.37;;
70454;Laerm;57915;47.174;14.680;2023-04-01T00:51:38;50.85;49.98;51.80;;
70454;Laerm;57915;47.174;14.680;2023-04-01T00:52:39;50.71;49.89;52.08;;
70454;Laerm;57915;47.174;14.680;2023-04-01T00:53:41;50.62;49.85;51.52;;
70454;Laerm;57915;47.174;14.680;2023-04-01T00:54:45;50.80;50.08;51.52;;
70454;Laerm;57915;47.174;14.680;2023-04-01T00:55:51;51.06;50.18;52.10;;
70454;Laerm;57915;47.174;14.680;2023-04-01T00:56:55;50.85;49.98;51.87;;
70454;Laerm;57915;47.174;14.680;2023-04-01T00:57:57;50.80;49.88;51.88;;
70454;Laerm;57915;47.174;14.680;2023-04-01T00:59:00;50.61;49.90;51.57;;
70454;Laerm;57915;47.174;14.680;2023-04-01T01:00:03;59.65;50.00;73.12;;
70454;Laerm;57915;47.174;14.680;2023-04-01T01:01:04;50.85;49.96;54.68;;
70454;Laerm;57915;47.174;14.680;2023-04-01T01:02:07;50.46;49.83;51.60;;
70454;Laerm;57915;47.174;14.680;2023-04-01T01:03:09;52.99;49.88;59.40;;
70454;Laerm;57915;47.174;14.680;2023-04-01T01:04:20;51.14;50.07;52.45;;
70454;Laerm;57915;47.174;14.680;2023-04-01T01:05:22;50.78;50.01;52.13;;
70454;Laerm;57915;47.174;14.680;2023-04-01T01:06:31;50.64;49.85;51.58;;
70454;Laerm;57915;47.174;14.680;2023-04-01T01:07:40;50.59;49.85;52.06;;
70454;Laerm;57915;47.174;14.680;2023-04-01T01:08:56;50.55;49.91;51.38;;
70454;Laerm;57915;47.174;14.680;2023-04-01T01:10:01;50.73;49.96;51.71;;
70454;Laerm;57915;47.174;14.680;2023-04-01T01:11:05;50.77;50.02;51.76;;
70454;Laerm;57915;47.174;14.680;2023-04-01T01:12:10;52.56;50.11;56.88;;
70454;Laerm;57915;47.174;14.680;2023-04-01T01:13:15;51.60;50.26;54.41;;
70454;Laerm;57915;47.174;14.680;2023-04-01T01:14:20;58.07;50.16;69.64;;
70454;Laerm;57915;47.174;14.680;2023-04-01T01:15:26;50.82;50.00;51.71;;
70454;Laerm;57915;47.174;14.680;2023-04-01T01:16:31;50.76;50.00;51.93;;
70454;Laerm;57915;47.174;14.680;2023-04-01T01:17:39;51.08;49.82;54.69;;
70454;Laerm;57915;47.174;14.680;2023-04-01T01:18:45;50.59;49.82;51.67;;
70454;Laerm;57915;47.174;14.680;2023-04-01T01:20:02;57.91;49.86;71.22;;
70454;Laerm;57915;47.174;14.680;2023-04-01T01:22:31;51.38;50.05;54.34;;
70454;Laerm;57915;47.174;14.680;2023-04-01T01:23:42;56.54;49.82;68.41;;
70454;Laerm;57915;47.174;14.680;2023-04-01T01:24:53;50.43;49.78;51.14;;
70454;Laerm;57915;47.174;14.680;2023-04-01T01:26:02;50.35;49.74;51.08;;
70454;Laerm;57915;47.174;14.680;2023-04-01T01:27:10;50.49;49.69;51.58;;
70454;Laerm;57915;47.174;14.680;2023-04-01T01:28:17;50.53;49.75;51.75;;
70454;Laerm;57915;47.174;14.680;2023-04-01T01:30:40;51.42;49.93;59.96;;
70454;Laerm;57915;47.174;14.680;2023-04-01T01:31:48;50.57;49.91;51.35;;
70454;Laerm;57915;47.174;14.680;2023-04-01T01:34:15;50.72;49.94;54.60;;
70454;Laerm;57915;47.174;14.680;2023-04-01T01:35:22;55.62;49.94;66.65;;
70454;Laerm;57915;47.174;14.680;2023-04-01T01:36:25;50.55;49.82;51.42;;
70454;Laerm;57915;47.174;14.680;2023-04-01T01:37:27;50.55;49.85;51.38;;
70454;Laerm;57915;47.174;14.680;2023-04-01T01:38:32;50.50;49.85;51.21;;
70454;Laerm;57915;47.174;14.680;2023-04-01T01:39:34;51.13;49.84;56.28;;
70454;Laerm;57915;47.174;14.680;2023-04-01T01:40:37;50.50;49.84;51.29;;
70454;Laerm;57915;47.174;14.680;2023-04-01T01:41:41;50.71;49.92;51.52;;
70454;Laerm;57915;47.174;14.680;2023-04-01T01:42:44;60.36;49.98;73.62;;
70454;Laerm;57915;47.174;14.680;2023-04-01T01:43:46;50.67;49.91;51.94;;
70454;Laerm;57915;47.174;14.680;2023-04-01T01:44:49;50.89;50.00;52.25;;
70454;Laerm;57915;47.174;14.680;2023-04-01T01:45:52;50.64;49.99;51.31;;
70454;Laerm;57915;47.174;14.680;2023-04-01T01:46:55;50.70;49.95;51.61;;
70454;Laerm;57915;47.174;14.680;2023-04-01T01:47:56;50.82;50.00;51.87;;
70454;Laerm;57915;47.174;14.680;2023-04-01T01:48:59;50.85;50.05;51.68;;
70454;Laerm;57915;47.174;14.680;2023-04-01T01:50:00;50.99;50.11;52.10;;
70454;Laerm;57915;47.174;14.680;2023-04-01T01:51:05;50.87;50.08;51.75;;
70454;Laerm;57915;47.174;14.680;2023-04-01T01:52:06;50.97;50.17;54.03;;
70454;Laerm;57915;47.174;14.680;2023-04-01T01:53:08;50.94;50.12;51.75;;
70454;Laerm;57915;47.174;14.680;2023-04-01T01:54:11;50.91;50.06;52.11;;
70454;Laerm;57915;47.174;14.680;2023-04-01T01:55:28;51.19;50.15;52.64;;
70454;Laerm;57915;47.174;14.680;2023-04-01T01:56:29;50.78;50.01;51.58;;
70454;Laerm;57915;47.174;14.680;2023-04-01T01:57:32;50.85;50.10;51.79;;
70454;Laerm;57915;47.174;14.680;2023-04-01T01:58:35;51.11;50.15;52.42;;
70454;Laerm;57915;47.174;14.680;2023-04-01T01:59:40;50.94;50.07;51.81;;
70454;Laerm;57915;47.174;14.680;2023-04-01T02:00:43;59.38;50.26;70.78;;
70454;Laerm;57915;47.174;14.680;2023-04-01T02:01:47;52.28;50.28;60.35;;
70454;Laerm;57915;47.174;14.680;2023-04-01T02:02:48;50.96;49.99;52.22;;
70454;Laerm;57915;47.174;14.680;2023-04-01T02:03:51;51.17;50.30;52.28;;
70454;Laerm;57915;47.174;14.680;2023-04-01T02:04:52;50.80;49.97;52.20;;
70454;Laerm;57915;47.174;14.680;2023-04-01T02:05:55;50.66;50.02;51.26;;
70454;Laerm;57915;47.174;14.680;2023-04-01T02:06:59;50.67;49.94;51.53;;
70454;Laerm;57915;47.174;14.680;2023-04-01T02:08:05;54.63;50.03;65.43;;
70454;Laerm;57915;47.174;14.680;2023-04-01T02:09:07;50.73;50.05;52.95;;
70454;Laerm;57915;47.174;14.680;2023-04-01T02:10:10;52.58;50.16;60.78;;
70454;Laerm;57915;47.174;14.680;2023-04-01T02:11:11;59.93;50.14;70.66;;
70454;Laerm;57915;47.174;14.680;2023-04-01T02:12:13;57.76;50.13;71.28;;
70454;Laerm;57915;47.174;14.680;2023-04-01T02:13:18;56.18;50.23;66.96;;
70454;Laerm;57915;47.174;14.680;2023-04-01T02:14:22;58.87;50.14;70.93;;
70454;Laerm;57915;47.174;14.680;2023-04-01T02:15:23;51.70;50.17;59.21;;
70454;Laerm;57915;47.174;14.680;2023-04-01T02:16:31;50.82;50.17;51.52;;
70454;Laerm;57915;47.174;14.680;2023-04-01T02:17:34;50.96;50.19;51.76;;
70454;Laerm;57915;47.174;14.680;2023-04-01T02:18:39;50.92;50.14;51.78;;
70454;Laerm;57915;47.174;14.680;2023-04-01T02:19:40;50.97;50.17;52.93;;
70454;Laerm;57915;47.174;14.680;2023-04-01T02:20:45;53.08;50.31;56.25;;
70454;Laerm;57915;47.174;14.680;2023-04-01T02:21:46;57.92;50.14;69.94;;
70454;Laerm;57915;47.174;14.680;2023-04-01T02:22:49;51.30;50.29;52.38;;
70454;Laerm;57915;47.174;14.680;2023-04-01T02:23:51;51.20;50.29;52.20;;
70454;Laerm;57915;47.174;14.680;2023-04-01T02:24:55;51.09;50.32;51.76;;
70454;Laerm;57915;47.174;14.680;2023-04-01T02:25:57;51.02;50.36;51.97;;
70454;Laerm;57915;47.174;14.680;2023-04-01T02:26:59;50.97;50.25;51.74;;
70454;Laerm;57915;47.174;14.680;2023-04-01T02:27:59;54.02;50.57;61.14;;
70454;Laerm;57915;47.174;14.680;2023-04-01T02:29:02;51.79;50.33;56.69;;
70454;Laerm;57915;47.174;14.680;2023-04-01T02:30:04;51.19;50.38;52.21;;
70454;Laerm;57915;47.174;14.680;2023-04-01T02:31:06;51.22;50.30;53.42;;
70454;Laerm;57915;47.174;14.680;2023-04-01T02:32:08;51.20;50.20;52.64;;
70454;Laerm;57915;47.174;14.680;2023-04-01T02:33:11;51.38;50.26;53.05;;
70454;Laerm;57915;47.174;14.680;2023-04-01T02:34:14;50.83;50.10;51.49;;
70454;Laerm;57915;47.174;14.680;2023-04-01T02:35:16;50.98;50.08;51.90;;
70454;Laerm;57915;47.174;14.680;2023-04-01T02:36:17;58.28;50.21;70.07;;
70454;Laerm;57915;47.174;14.680;2023-04-01T02:37:19;58.84;49.99;70.93;;
70454;Laerm;57915;47.174;14.680;2023-04-01T02:38:21;52.10;50.26;61.95;;
70454;Laerm;57915;47.174;14.680;2023-04-01T02:39:23;57.62;50.25;69.81;;
70454;Laerm;57915;47.174;14.680;2023-04-01T02:40:25;51.68;50.46;55.52;;
70454;Laerm;57915;47.174;14.680;2023-04-01T02:41:27;52.57;50.54;55.54;;
70454;Laerm;57915;47.174;14.680;2023-04-01T02:42:27;51.45;50.49;54.63;;
70454;Laerm;57915;47.174;14.680;2023-04-01T02:43:29;61.47;50.54;72.96;;
70454;Laerm;57915;47.174;14.680;2023-04-01T02:44:29;51.40;50.18;53.89;;
70454;Laerm;57915;47.174;14.680;2023-04-01T02:45:31;50.94;49.74;52.03;;
70454;Laerm;57915;47.174;14.680;2023-04-01T02:46:31;51.03;50.04;52.18;;
70454;Laerm;57915;47.174;14.680;2023-04-01T02:47:33;51.02;50.09;52.47;;
70454;Laerm;57915;47.174;14.680;2023-04-01T02:48:33;50.93;50.16;51.80;;
70454;Laerm;57915;47.174;14.680;2023-04-01T02:49:35;55.81;50.16;65.97;;
70454;Laerm;57915;47.174;14.680;2023-04-01T02:50:35;52.97;50.10;69.16;;
70454;Laerm;57915;47.174;14.680;2023-04-01T02:51:37;52.08;50.35;62.13;;
70454;Laerm;57915;47.174;14.680;2023-04-01T02:52:37;53.64;50.27;70.30;;
70454;Laerm;57915;47.174;14.680;2023-04-01T02:53:40;57.16;50.24;69.47;;
70454;Laerm;57915;47.174;14.680;2023-04-01T02:54:41;52.21;50.35;59.88;;
70454;Laerm;57915;47.174;14.680;2023-04-01T02:55:42;53.62;50.16;63.51;;
70454;Laerm;57915;47.174;14.680;2023-04-01T02:56:43;51.02;50.14;56.70;;
70454;Laerm;57915;47.174;14.680;2023-04-01T02:57:45;51.70;50.11;61.32;;
70454;Laerm;57915;47.174;14.680;2023-04-01T02:58:46;51.79;50.01;59.72;;
70454;Laerm;57915;47.174;14.680;2023-04-01T02:59:47;51.30;49.93;58.99;;
70454;Laerm;57915;47.174;14.680;2023-04-01T03:00:48;51.33;50.09;62.53;;
70454;Laerm;57915;47.174;14.680;2023-04-01T03:01:49;56.01;50.07;67.24;;
70454;Laerm;57915;47.174;14.680;2023-04-01T03:02:50;51.53;49.92;63.58;;
70454;Laerm;57915;47.174;14.680;2023-04-01T03:03:51;51.29;49.99;61.29;;
70454;Laerm;57915;47.174;14.680;2023-04-01T03:04:52;51.81;50.00;62.90;;
70454;Laerm;57915;47.174;14.680;2023-04-01T03:05:54;60.23;50.12;74.79;;
70454;Laerm;57915;47.174;14.680;2023-04-01T03:06:56;52.15;50.07;63.00;;
70454;Laerm;57915;47.174;14.680;2023-04-01T03:07:57;64.80;50.24;76.95;;
70454;Laerm;57915;47.174;14.680;2023-04-01T03:08:59;51.72;49.93;63.41;;
70454;Laerm;57915;47.174;14.680;2023-04-01T03:10:00;58.42;50.20;70.45;;
70454;Laerm;57915;47.174;14.680;2023-04-01T03:11:03;61.11;49.91;75.06;;
70454;Laerm;57915;47.174;14.680;2023-04-01T03:12:06;52.08;50.18;61.02;;
70454;Laerm;57915;47.174;14.680;2023-04-01T03:13:06;59.97;50.41;70.51;;
70454;Laerm;57915;47.174;14.680;2023-04-01T03:14:08;52.10;49.99;64.22;;
70454;Laerm;57915;47.174;14.680;2023-04-01T03:15:09;52.96;49.84;64.00;;
70454;Laerm;57915;47.174;14.680;2023-04-01T03:16:11;52.03;50.05;64.54;;
70454;Laerm;57915;47.174;14.680;2023-04-01T03:17:11;55.18;49.97;64.30;;
70454;Laerm;57915;47.174;14.680;2023-04-01T03:18:13;52.82;50.03;64.96;;
70454;Laerm;57915;47.174;14.680;2023-04-01T03:19:13;52.32;49.77;64.47;;
70454;Laerm;57915;47.174;14.680;2023-04-01T03:20:15;57.97;49.87;69.91;;
70454;Laerm;57915;47.174;14.680;2023-04-01T03:21:17;52.87;49.99;65.26;;
70454;Laerm;57915;47.174;14.680;2023-04-01T03:22:19;55.36;49.95;65.32;;
70454;Laerm;57915;47.174;14.680;2023-04-01T03:23:21;53.35;49.69;65.49;;
70454;Laerm;57915;47.174;14.680;2023-04-01T03:24:25;62.75;50.05;78.39;;
70454;Laerm;57915;47.174;14.680;2023-04-01T03:25:26;53.76;49.91;68.88;;
70454;Laerm;57915;47.174;14.680;2023-04-01T03:26:28;53.40;50.02;65.64;;
70454;Laerm;57915;47.174;14.680;2023-04-01T03:27:29;53.82;50.06;69.25;;
70454;Laerm;57915;47.174;14.680;2023-04-01T03:28:30;54.35;49.90;67.88;;
70454;Laerm;57915;47.174;14.680;2023-04-01T03:29:31;54.01;50.29;68.43;;
70454;Laerm;57915;47.174;14.680;2023-04-01T03:30:32;53.32;50.21;65.48;;
70454;Laerm;57915;47.174;14.680;2023-04-01T03:31:33;59.26;50.21;71.85;;
70454;Laerm;57915;47.174;14.680;2023-04-01T03:32:35;59.69;50.64;70.50;;
70454;Laerm;57915;47.174;14.680;2023-04-01T03:33:36;55.51;51.04;68.45;;
70454;Laerm;57915;47.174;14.680;2023-04-01T03:34:37;53.38;50.22;64.85;;
70454;Laerm;57915;47.174;14.680;2023-04-01T03:35:38;53.66;50.24;65.39;;
70454;Laerm;57915;47.174;14.680;2023-04-01T03:36:39;58.14;50.29;68.96;;
70454;Laerm;57915;47.174;14.680;2023-04-01T03:37:41;53.89;50.18;67.13;;
70454;Laerm;57915;47.174;14.680;2023-04-01T03:38:42;57.22;50.15;67.91;;
70454;Laerm;57915;47.174;14.680;2023-04-01T03:39:45;55.26;50.72;64.01;;
70454;Laerm;57915;47.174;14.680;2023-04-01T03:40:45;61.32;51.05;68.60;;
70454;Laerm;57915;47.174;14.680;2023-04-01T03:41:47;54.07;50.30;67.17;;
70454;Laerm;57915;47.174;14.680;2023-04-01T03:42:48;55.77;50.42;68.12;;
70454;Laerm;57915;47.174;14.680;2023-04-01T03:43:49;55.41;50.54;68.58;;
70454;Laerm;57915;47.174;14.680;2023-04-01T03:44:50;54.07;50.35;65.55;;
70454;Laerm;57915;47.174;14.680;2023-04-01T03:45:51;54.33;50.61;67.24;;
70454;Laerm;57915;47.174;14.680;2023-04-01T03:46:52;54.37;50.43;66.00;;
70454;Laerm;57915;47.174;14.680;2023-04-01T03:47:53;54.90;50.45;68.23;;
70454;Laerm;57915;47.174;14.680;2023-04-01T03:48:54;56.08;50.43;70.16;;
70454;Laerm;57915;47.174;14.680;2023-04-01T03:49:55;53.29;50.16;64.80;;
70454;Laerm;57915;47.174;14.680;2023-04-01T03:50:56;58.42;50.25;69.49;;
70454;Laerm;57915;47.174;14.680;2023-04-01T03:51:58;59.30;50.43;70.67;;
70454;Laerm;57915;47.174;14.680;2023-04-01T03:52:58;53.82;50.42;68.58;;
70454;Laerm;57915;47.174;14.680;2023-04-01T03:54:00;52.72;50.24;58.87;;
70454;Laerm;57915;47.174;14.680;2023-04-01T03:55:02;53.26;50.50;61.40;;
70454;Laerm;57915;47.174;14.680;2023-04-01T03:56:04;59.23;50.89;71.92;;
70454;Laerm;57915;47.174;14.680;2023-04-01T03:57:05;60.90;50.93;74.57;;
70454;Laerm;57915;47.174;14.680;2023-04-01T03:58:07;55.33;50.73;68.22;;
70454;Laerm;57915;47.174;14.680;2023-04-01T03:59:07;58.27;51.14;68.50;;
70454;Laerm;57915;47.174;14.680;2023-04-01T04:00:09;55.57;51.25;70.13;;
70454;Laerm;57915;47.174;14.680;2023-04-01T04:01:15;60.44;50.77;70.01;;
70454;Laerm;57915;47.174;14.680;2023-04-01T04:02:16;60.63;50.62;75.05;;
70454;Laerm;57915;47.174;14.680;2023-04-01T04:03:17;53.92;50.79;66.22;;
70454;Laerm;57915;47.174;14.680;2023-04-01T04:04:18;54.14;50.84;68.00;;
70454;Laerm;57915;47.174;14.680;2023-04-01T04:05:19;59.70;51.39;68.42;;
70454;Laerm;57915;47.174;14.680;2023-04-01T04:06:20;54.05;50.60;64.26;;
70454;Laerm;57915;47.174;14.680;2023-04-01T04:07:21;62.14;50.76;71.29;;
70454;Laerm;57915;47.174;14.680;2023-04-01T04:08:22;53.09;50.59;64.90;;
70454;Laerm;57915;47.174;14.680;2023-04-01T04:09:23;60.14;50.64;72.24;;
70454;Laerm;57915;47.174;14.680;2023-04-01T04:10:26;61.55;50.72;72.38;;
70454;Laerm;57915;47.174;14.680;2023-04-01T04:11:26;53.30;50.54;66.95;;
70454;Laerm;57915;47.174;14.680;2023-04-01T04:12:28;52.14;50.44;60.51;;
70454;Laerm;57915;47.174;14.680;2023-04-01T04:13:28;57.18;50.94;67.41;;
70454;Laerm;57915;47.174;14.680;2023-04-01T04:14:30;54.37;50.31;67.28;;
70454;Laerm;57915;47.174;14.680;2023-04-01T04:15:31;60.38;50.74;72.71;;
70454;Laerm;57915;47.174;14.680;2023-04-01T04:16:31;52.34;50.49;62.97;;
70454;Laerm;57915;47.174;14.680;2023-04-01T04:17:36;58.32;50.73;68.41;;
70454;Laerm;57915;47.174;14.680;2023-04-01T04:18:37;52.97;50.38;63.15;;
70454;Laerm;57915;47.174;14.680;2023-04-01T04:19:38;51.85;50.56;57.17;;
70454;Laerm;57915;47.174;14.680;2023-04-01T04:20:43;51.67;50.51;56.24;;
70454;Laerm;57915;47.174;14.680;2023-04-01T04:21:45;55.78;50.33;64.91;;
70454;Laerm;57915;47.174;14.680;2023-04-01T04:22:46;51.85;50.39;57.73;;
70454;Laerm;57915;47.174;14.680;2023-04-01T04:23:47;54.40;50.51;63.78;;
70454;Laerm;57915;47.174;14.680;2023-04-01T04:24:47;51.75;50.30;54.68;;
70454;Laerm;57915;47.174;14.680;2023-04-01T04:25:57;51.96;50.66;56.59;;
70454;Laerm;57915;47.174;14.680;2023-04-01T04:26:58;51.78;50.38;55.13;;
70454;Laerm;57915;47.174;14.680;2023-04-01T04:28:00;52.72;50.32;60.27;;
70454;Laerm;57915;47.174;14.680;2023-04-01T04:29:00;57.55;50.72;71.31;;
70454;Laerm;57915;47.174;14.680;2023-04-01T04:30:02;59.57;50.70;71.08;;
70454;Laerm;57915;47.174;14.680;2023-04-01T04:31:03;51.86;50.47;54.82;;
70454;Laerm;57915;47.174;14.680;2023-04-01T04:32:06;58.26;50.57;68.96;;
70454;Laerm;57915;47.174;14.680;2023-04-01T04:33:07;53.12;50.52;62.20;;
70454;Laerm;57915;47.174;14.680;2023-04-01T04:34:08;53.09;50.48;63.84;;
70454;Laerm;57915;47.174;14.680;2023-04-01T04:35:09;53.08;50.23;64.84;;
70454;Laerm;57915;47.174;14.680;2023-04-01T04:36:11;56.94;50.97;68.39;;
70454;Laerm;57915;47.174;14.680;2023-04-01T04:37:11;57.52;50.63;67.74;;
70454;Laerm;57915;47.174;14.680;2023-04-01T04:38:13;59.49;50.53;70.74;;
70454;Laerm;57915;47.174;14.680;2023-04-01T04:39:14;58.31;50.46;70.32;;
70454;Laerm;57915;47.174;14.680;2023-04-01T04:40:15;61.07;50.10;75.12;;
70454;Laerm;57915;47.174;14.680;2023-04-01T04:41:17;60.20;50.43;72.64;;
70454;Laerm;57915;47.174;14.680;2023-04-01T04:42:21;55.69;50.42;66.09;;
70454;Laerm;57915;47.174;14.680;2023-04-01T04:43:21;59.55;50.60;72.61;;
70454;Laerm;57915;47.174;14.680;2023-04-01T04:44:23;58.34;50.31;70.63;;
70454;Laerm;57915;47.174;14.680;2023-04-01T04:45:24;51.42;50.36;53.39;;
70454;Laerm;57915;47.174;14.680;2023-04-01T04:46:26;60.20;50.68;70.61;;
70454;Laerm;57915;47.174;14.680;2023-04-01T04:47:26;60.36;50.34;71.40;;
70454;Laerm;57915;47.174;14.680;2023-04-01T04:48:28;62.77;50.37;73.54;;
70454;Laerm;57915;47.174;14.680;2023-04-01T04:49:29;58.63;50.71;70.01;;
70454;Laerm;57915;47.174;14.680;2023-04-01T04:50:30;55.90;50.60;66.28;;
70454;Laerm;57915;47.174;14.680;2023-04-01T04:51:31;58.33;50.69;69.21;;
70454;Laerm;57915;47.174;14.680;2023-04-01T04:52:34;63.56;50.75;72.50;;
70454;Laerm;57915;47.174;14.680;2023-04-01T04:53:35;57.20;50.76;67.75;;
70454;Laerm;57915;47.174;14.680;2023-04-01T04:54:36;58.34;50.52;70.00;;
70454;Laerm;57915;47.174;14.680;2023-04-01T04:55:36;55.01;50.51;68.11;;
70454;Laerm;57915;47.174;14.680;2023-04-01T04:56:39;60.44;50.53;69.33;;
70454;Laerm;57915;47.174;14.680;2023-04-01T04:57:40;57.04;50.39;67.21;;
70454;Laerm;57915;47.174;14.680;2023-04-01T04:58:41;54.17;50.46;66.81;;
70454;Laerm;57915;47.174;14.680;2023-04-01T04:59:42;56.22;51.03;65.87;;
70454;Laerm;57915;47.174;14.680;2023-04-01T05:00:44;51.75;50.67;55.05;;
70454;Laerm;57915;47.174;14.680;2023-04-01T05:01:44;59.58;50.66;69.86;;
70454;Laerm;57915;47.174;14.680;2023-04-01T05:02:46;57.30;50.73;68.00;;
70454;Laerm;57915;47.174;14.680;2023-04-01T05:03:46;60.78;50.69;71.38;;
70454;Laerm;57915;47.174;14.680;2023-04-01T05:04:48;51.63;50.43;58.23;;
70454;Laerm;57915;47.174;14.680;2023-04-01T05:05:49;54.75;50.41;64.84;;
70454;Laerm;57915;47.174;14.680;2023-04-01T05:06:51;61.58;50.68;70.70;;
70454;Laerm;57915;47.174;14.680;2023-04-01T05:07:51;55.18;50.53;65.05;;
70454;Laerm;57915;47.174;14.680;2023-04-01T05:08:53;56.87;50.47;68.08;;
70454;Laerm;57915;47.174;14.680;2023-04-01T05:09:53;56.99;50.58;66.45;;
70454;Laerm;57915;47.174;14.680;2023-04-01T05:10:55;53.40;50.84;61.42;;
70454;Laerm;57915;47.174;14.680;2023-04-01T05:11:57;52.41;50.75;64.24;;
70454;Laerm;57915;47.174;14.680;2023-04-01T05:12:58;58.49;50.88;69.05;;
70454;Laerm;57915;47.174;14.680;2023-04-01T05:13:59;58.01;51.10;69.73;;
70454;Laerm;57915;47.174;14.680;2023-04-01T05:15:00;56.92;50.67;67.47;;
70454;Laerm;57915;47.174;14.680;2023-04-01T05:16:01;58.50;50.70;69.62;;
70454;Laerm;57915;47.174;14.680;2023-04-01T05:17:02;59.62;51.42;68.06;;
70454;Laerm;57915;47.174;14.680;2023-04-01T05:18:03;56.88;50.66;67.23;;
70454;Laerm;57915;47.174;14.680;2023-04-01T05:19:05;58.45;50.92;67.48;;
70454;Laerm;57915;47.174;14.680;2023-04-01T05:20:06;59.58;51.43;71.01;;
70454;Laerm;57915;47.174;14.680;2023-04-01T05:21:07;61.25;50.83;68.40;;
70454;Laerm;57915;47.174;14.680;2023-04-01T05:22:08;60.22;50.84;69.39;;
70454;Laerm;57915;47.174;14.680;2023-04-01T05:23:10;56.65;50.34;66.89;;
70454;Laerm;57915;47.174;14.680;2023-04-01T05:24:11;54.02;50.80;64.04;;
70454;Laerm;57915;47.174;14.680;2023-04-01T05:25:13;56.09;50.46;67.41;;
70454;Laerm;57915;47.174;14.680;2023-04-01T05:26:14;63.09;50.54;73.22;;
70454;Laerm;57915;47.174;14.680;2023-04-01T05:27:17;55.76;50.24;65.83;;
70454;Laerm;57915;47.174;14.680;2023-04-01T05:28:17;60.75;50.53;72.24;;
70454;Laerm;57915;47.174;14.680;2023-04-01T05:29:19;54.97;50.27;71.64;;
70454;Laerm;57915;47.174;14.680;2023-04-01T05:30:19;59.81;50.38;71.06;;
70454;Laerm;57915;47.174;14.680;2023-04-01T05:31:21;59.05;50.42;71.01;;
70454;Laerm;57915;47.174;14.680;2023-04-01T05:32:21;61.22;51.15;69.75;;
70454;Laerm;57915;47.174;14.680;2023-04-01T05:33:23;56.53;50.37;67.30;;
70454;Laerm;57915;47.174;14.680;2023-04-01T05:34:23;57.56;50.23;66.62;;
70454;Laerm;57915;47.174;14.680;2023-04-01T05:35:25;58.53;50.06;68.17;;
70454;Laerm;57915;47.174;14.680;2023-04-01T05:36:25;61.43;51.15;69.81;;
70454;Laerm;57915;47.174;14.680;2023-04-01T05:37:27;60.15;50.29;71.27;;
70454;Laerm;57915;47.174;14.680;2023-04-01T05:38:27;58.84;50.34;69.12;;
70454;Laerm;57915;47.174;14.680;2023-04-01T05:39:29;60.10;50.33;70.26;;
70454;Laerm;57915;47.174;14.680;2023-04-01T05:40:29;61.14;50.59;71.06;;
70454;Laerm;57915;47.174;14.680;2023-04-01T05:41:31;61.26;50.43;73.33;;
70454;Laerm;57915;47.174;14.680;2023-04-01T05:42:34;57.16;50.47;66.44;;
70454;Laerm;57915;47.174;14.680;2023-04-01T05:43:36;63.54;52.18;71.54;;
70454;Laerm;57915;47.174;14.680;2023-04-01T05:44:36;61.53;51.53;70.68;;
70454;Laerm;57915;47.174;14.680;2023-04-01T05:45:38;59.77;51.16;67.10;;
70454;Laerm;57915;47.174;14.680;2023-04-01T05:46:39;53.46;50.53;59.93;;
70454;Laerm;57915;47.174;14.680;2023-04-01T05:47:40;60.04;50.73;69.27;;